Time;durP1;ratioP1;P1;durP2;ratioP2;P2;SDS_P1;SDS_P2;PMS_P1;PMS_P2;Temp;Humidity;BMP_temperature;BMP_pressure;BME280_temperature;BME280_humidity;BME280_pressure;Samples;Min_cycle;Max_cycle;Signal;HPM_P1;HPM_P2
2022/10/11 00:02:19;;;;;;;7.87;4.80;;;;;;;7.06;71.79;101356.79;1677135;84;21013;-65
2022/10/11 00:04:49;;;;;;;8.98;5.72;;;;;;;7.05;71.79;101359.16;1679199;84;21071;-66
2022/10/11 00:07:17;;;;;;;8.18;5.33;;;;;;;7.00;71.85;101358.45;1694423;84;20944;-65
2022/10/11 00:09:45;;;;;;;10.10;6.28;;;;;;;6.99;71.97;101352.84;1693505;84;21094;-65
2022/10/11 00:12:11;;;;;;;8.95;5.65;;;;;;;6.98;72.00;101347.77;1675542;84;21043;-65
2022/10/11 00:14:38;;;;;;;9.75;5.05;;;;;;;6.96;72.02;101353.80;1693168;84;21079;-64
2022/10/11 00:17:09;;;;;;;10.25;5.28;;;;;;;6.97;71.99;101356.22;1696172;84;20972;-64
2022/10/11 00:19:35;;;;;;;8.83;5.33;;;;;;;6.94;71.95;101351.84;1694876;84;21665;-65
2022/10/11 00:22:02;;;;;;;9.65;5.17;;;;;;;6.91;72.08;101352.27;1672242;84;21284;-66
2022/10/11 00:24:28;;;;;;;7.65;5.00;;;;;;;6.91;72.22;101353.60;1673580;84;20982;-64
2022/10/11 00:26:56;;;;;;;8.55;4.95;;;;;;;6.92;72.31;101353.41;1676674;84;21004;-64
2022/10/11 00:29:23;;;;;;;8.05;4.97;;;;;;;7.32;71.33;101351.82;1693030;84;21498;-65
2022/10/11 00:31:50;;;;;;;7.50;4.58;;;;;;;7.00;72.04;101352.33;1671407;84;21673;-64
2022/10/11 00:34:17;;;;;;;8.93;5.25;;;;;;;6.91;72.35;101349.13;1675936;84;21250;-66
2022/10/11 00:36:44;;;;;;;8.78;5.35;;;;;;;6.92;72.61;101348.09;1687271;84;21004;-64
2022/10/11 00:39:12;;;;;;;8.48;4.70;;;;;;;6.94;72.67;101347.38;1695134;84;21016;-65
2022/10/11 00:41:38;;;;;;;9.60;5.20;;;;;;;6.96;72.65;101345.30;1687079;84;21456;-64
2022/10/11 00:44:13;;;;;;;10.58;5.15;;;;;;;6.98;72.67;101347.77;1694174;84;21016;-65
2022/10/11 00:46:43;;;;;;;8.08;4.87;;;;;;;6.99;72.67;101342.23;1678428;84;21585;-65
2022/10/11 00:49:22;;;;;;;7.37;4.90;;;;;;;6.98;72.69;101343.27;1663952;84;21079;-67
2022/10/11 00:51:54;;;;;;;7.80;4.95;;;;;;;6.97;72.76;101342.94;1691494;84;21086;-65
2022/10/11 00:54:24;;;;;;;9.35;4.92;;;;;;;6.99;72.81;101340.09;1680540;83;21121;-65
2022/10/11 00:56:55;;;;;;;9.45;4.78;;;;;;;7.01;72.82;101340.18;1668241;84;21116;-66
2022/10/11 00:59:25;;;;;;;8.25;4.92;;;;;;;7.03;72.87;101331.98;1668382;86;21506;-65
2022/10/11 01:01:52;;;;;;;8.40;4.78;;;;;;;7.04;72.87;101332.27;1689071;84;21095;-67
2022/10/11 01:04:19;;;;;;;10.35;4.92;;;;;;;7.05;72.84;101332.59;1690380;84;21037;-65
2022/10/11 01:06:48;;;;;;;9.15;5.25;;;;;;;7.05;72.82;101339.23;1661854;86;21024;-65
2022/10/11 01:09:17;;;;;;;9.43;5.25;;;;;;;7.03;72.75;101334.64;1689918;85;21025;-65
2022/10/11 01:11:45;;;;;;;8.58;4.87;;;;;;;7.00;72.73;101341.19;1672776;85;20993;-66
2022/10/11 01:14:34;;;;;;;7.45;4.75;;;;;;;7.00;72.74;101339.05;1651686;84;20994;-66
2022/10/11 01:17:21;;;;;;;8.43;4.60;;;;;;;7.00;72.74;101337.72;1688498;85;21122;-66
2022/10/11 01:20:44;;;;;;;9.80;5.00;;;;;;;6.99;72.76;101333.45;1677145;85;21194;-66
2022/10/11 01:24:01;;;;;;;10.45;4.87;;;;;;;7.50;71.66;101339.94;1621969;87;21162;-64
2022/10/11 01:26:39;;;;;;;8.15;5.10;;;;;;;7.16;71.89;101342.52;1680369;84;21227;-66
2022/10/11 01:29:53;;;;;;;9.03;5.22;;;;;;;6.98;72.39;101350.42;1708658;83;20977;-66
2022/10/11 01:32:40;;;;;;;7.92;4.95;;;;;;;6.94;72.57;101345.21;1742521;81;21001;-66
2022/10/11 01:35:22;;;;;;;8.10;4.92;;;;;;;6.91;72.77;101344.30;1730402;82;21001;-65
2022/10/11 01:37:54;;;;;;;8.93;4.85;;;;;;;6.89;72.85;101346.38;1716070;82;21071;-66
2022/10/11 01:40:26;;;;;;;8.00;4.87;;;;;;;7.22;72.23;101348.31;1739780;82;21188;-65
2022/10/11 01:42:53;;;;;;;8.20;5.05;;;;;;;7.54;71.21;101343.49;1741122;82;21135;-66
2022/10/11 01:45:19;;;;;;;10.55;5.30;;;;;;;7.55;70.90;101341.92;1730084;81;21452;-65
2022/10/11 01:47:46;;;;;;;8.28;4.83;;;;;;;7.57;70.79;101343.03;1733187;81;21440;-66
2022/10/11 01:50:36;;;;;;;7.42;4.60;;;;;;;7.60;70.67;101338.12;1743860;81;21448;-65
2022/10/11 01:53:11;;;;;;;8.28;4.75;;;;;;;7.63;70.58;101342.97;1746644;82;21574;-66
2022/10/11 01:55:59;;;;;;;8.28;4.50;;;;;;;7.64;70.47;101341.15;1716644;82;21072;-65
2022/10/11 01:58:49;;;;;;;8.05;4.47;;;;;;;7.63;70.39;101345.63;1745301;82;21031;-66
2022/10/11 02:01:28;;;;;;;7.37;3.87;;;;;;;7.64;70.30;101349.13;1746925;82;21036;-65
2022/10/11 02:04:10;;;;;;;8.48;4.78;;;;;;;7.56;70.24;101354.18;1729935;81;21025;-66
2022/10/11 02:07:25;;;;;;;7.42;4.42;;;;;;;7.44;70.38;101355.94;1731479;82;20961;-65
2022/10/11 02:10:17;;;;;;;8.28;4.15;;;;;;;7.38;70.49;101360.27;1743601;82;21021;-66
2022/10/11 02:12:52;;;;;;;8.15;4.72;;;;;;;7.36;70.60;101354.86;1735854;82;21068;-65
2022/10/11 02:15:20;;;;;;;6.47;4.45;;;;;;;7.36;70.67;101358.33;1724549;82;21102;-67
2022/10/11 02:17:52;;;;;;;8.35;4.70;;;;;;;7.37;70.72;101359.13;1721030;82;21008;-66
2022/10/11 02:20:21;;;;;;;;;;;;;;;7.40;70.69;101354.72;1730861;82;21229;-65
2022/10/11 02:22:50;;;;;;;6.92;3.95;;;;;;;7.43;70.64;101351.63;1717193;83;20205;-65
2022/10/11 02:25:22;;;;;;;7.97;4.28;;;;;;;7.41;70.57;101356.37;1722548;82;21068;-66
2022/10/11 02:27:48;;;;;;;8.73;4.37;;;;;;;7.35;70.57;101358.55;1701041;82;21069;-67
2022/10/11 02:30:15;;;;;;;8.08;4.42;;;;;;;7.34;70.59;101356.91;1717516;83;21147;-66
2022/10/11 02:32:43;;;;;;;9.50;5.00;;;;;;;7.32;70.54;101358.46;1719511;82;21151;-67
2022/10/11 02:35:09;;;;;;;9.63;4.67;;;;;;;7.33;70.52;101357.95;1710905;82;21124;-67
2022/10/11 02:37:58;;;;;;;8.98;5.47;;;;;;;7.31;70.45;101354.19;1726482;82;21117;-67
2022/10/11 02:40:30;;;;;;;8.70;5.17;;;;;;;7.29;70.42;101353.58;1717581;82;21084;-67
2022/10/11 02:43:05;;;;;;;8.78;5.20;;;;;;;7.25;70.30;101349.73;1724823;81;21495;-65
2022/10/11 02:45:44;;;;;;;9.70;5.95;;;;;;;7.17;70.27;101353.47;1719696;81;21429;-66
2022/10/11 02:48:10;;;;;;;9.95;5.67;;;;;;;7.11;70.29;101352.16;1712482;82;20940;-68
2022/10/11 02:50:40;;;;;;;10.50;6.17;;;;;;;7.08;70.24;101353.42;1714397;81;22416;-68
2022/10/11 02:53:08;;;;;;;10.00;6.08;;;;;;;7.07;70.17;101350.96;1741881;82;21126;-68
2022/10/11 02:55:36;;;;;;;8.83;6.00;;;;;;;7.07;70.04;101353.09;1732794;82;21079;-67
2022/10/11 02:58:03;;;;;;;9.85;6.28;;;;;;;7.05;70.03;101352.52;1705408;82;21139;-66
2022/10/11 03:00:31;;;;;;;8.60;5.40;;;;;;;7.05;69.94;101347.20;1714352;82;21052;-65
2022/10/11 03:02:57;;;;;;;10.58;6.30;;;;;;;7.06;69.83;101347.50;1717361;83;21029;-65
2022/10/11 03:05:26;;;;;;;10.63;6.17;;;;;;;7.06;69.75;101352.81;1720817;82;21005;-65
2022/10/11 03:07:53;;;;;;;13.68;7.10;;;;;;;7.09;69.69;101363.53;1716819;82;21073;-65
2022/10/11 03:10:20;;;;;;;11.93;6.22;;;;;;;7.09;69.61;101360.35;1739953;82;21127;-67
2022/10/11 03:12:47;;;;;;;10.05;6.22;;;;;;;7.05;69.59;101357.31;1712048;82;21567;-66
2022/10/11 03:15:15;;;;;;;9.25;6.05;;;;;;;7.04;69.55;101357.51;1725438;82;20985;-66
2022/10/11 03:17:42;;;;;;;8.58;5.70;;;;;;;7.02;69.49;101348.95;1746378;82;21037;-66
2022/10/11 03:20:11;;;;;;;9.53;5.62;;;;;;;7.01;69.37;101346.02;1717630;82;21039;-66
2022/10/11 03:22:39;;;;;;;9.43;5.40;;;;;;;6.96;69.08;101350.62;1717357;83;21132;-65
2022/10/11 03:25:08;;;;;;;7.20;4.70;;;;;;;6.83;68.79;101349.88;1742540;82;21229;-66
2022/10/11 03:27:35;;;;;;;8.98;5.90;;;;;;;6.66;68.54;101349.05;1728785;81;21005;-66
2022/10/11 03:30:02;;;;;;;7.87;5.05;;;;;;;6.60;68.43;101359.69;1747096;82;21169;-66
2022/10/11 03:32:29;;;;;;;11.48;6.58;;;;;;;6.55;68.40;101359.00;1746994;82;20957;-66
2022/10/11 03:34:56;;;;;;;11.57;5.95;;;;;;;6.52;68.35;101362.89;1742593;82;21240;-66
2022/10/11 03:37:22;;;;;;;9.98;5.87;;;;;;;6.51;68.42;101356.45;1724606;82;21080;-66
2022/10/11 03:39:49;;;;;;;8.93;5.53;;;;;;;6.50;68.48;101356.97;1721007;82;21108;-68
2022/10/11 03:42:15;;;;;;;10.18;5.45;;;;;;;6.50;68.50;101359.62;1746962;82;21109;-67
2022/10/11 03:44:42;;;;;;;8.33;5.12;;;;;;;6.49;68.51;101362.50;1744502;81;21021;-66
2022/10/11 03:47:09;;;;;;;7.97;5.28;;;;;;;6.47;68.53;101364.02;1730322;82;21226;-67
2022/10/11 03:49:36;;;;;;;8.68;5.17;;;;;;;6.46;68.65;101359.74;1717999;81;21068;-66
2022/10/11 03:52:04;;;;;;;9.35;5.50;;;;;;;6.47;68.71;101357.38;1722275;82;21072;-66
2022/10/11 03:54:31;;;;;;;8.78;5.25;;;;;;;6.45;68.81;101359.94;1724844;82;21135;-68
2022/10/11 03:56:58;;;;;;;13.93;5.60;;;;;;;6.45;68.94;101358.13;1725479;81;21095;-66
2022/10/11 03:59:24;;;;;;;9.18;4.92;;;;;;;6.44;69.05;101356.47;1720013;82;21145;-66
2022/10/11 04:01:51;;;;;;;9.25;5.35;;;;;;;6.44;69.10;101364.43;1718297;82;21084;-66
2022/10/11 04:04:18;;;;;;;8.13;5.00;;;;;;;6.43;69.07;101353.52;1726631;81;21088;-66
2022/10/11 04:06:46;;;;;;;9.05;5.97;;;;;;;6.44;69.02;101359.64;1717064;83;21122;-65
2022/10/11 04:09:12;;;;;;;10.40;6.20;;;;;;;6.45;69.02;101359.94;1717822;82;21060;-65
2022/10/11 04:11:40;;;;;;;12.33;6.87;;;;;;;6.43;69.03;101358.02;1719618;82;21242;-66
2022/10/11 04:14:07;;;;;;;10.28;5.78;;;;;;;6.44;69.12;101355.66;1746694;82;21005;-66
2022/10/11 04:16:37;;;;;;;10.28;5.78;;;;;;;6.45;69.26;101357.28;1731176;82;21587;-67
2022/10/11 04:19:04;;;;;;;10.23;6.00;;;;;;;6.47;69.34;101361.88;1732607;82;21079;-68
2022/10/11 04:21:31;;;;;;;8.28;5.55;;;;;;;6.49;69.37;101365.15;1727909;82;21218;-68
2022/10/11 04:24:00;;;;;;;9.00;4.80;;;;;;;6.50;69.35;101362.79;1723012;82;21059;-67
2022/10/11 04:26:28;;;;;;;9.45;5.20;;;;;;;6.49;69.32;101365.95;1721762;81;21044;-66
2022/10/11 04:28:54;;;;;;;9.90;5.75;;;;;;;6.49;69.26;101365.95;1725865;81;21066;-66
2022/10/11 04:31:21;;;;;;;10.63;6.17;;;;;;;6.50;69.28;101366.77;1728786;82;21115;-67
2022/10/11 04:33:47;;;;;;;8.73;6.30;;;;;;;6.50;69.40;101368.09;1730678;82;21028;-67
2022/10/11 04:36:14;;;;;;;10.68;6.78;;;;;;;6.51;69.60;101364.41;1697414;84;21140;-66
2022/10/11 04:38:41;;;;;;;9.38;6.40;;;;;;;6.53;69.68;101369.01;1697001;84;20972;-66
2022/10/11 04:41:09;;;;;;;9.68;6.10;;;;;;;6.55;69.71;101374.41;1734390;82;21633;-67
2022/10/11 04:43:37;;;;;;;10.78;6.47;;;;;;;6.58;69.71;101374.00;1738981;81;21563;-67
2022/10/11 04:46:04;;;;;;;9.73;6.28;;;;;;;6.62;69.71;101376.23;1725715;82;21513;-66
2022/10/11 04:48:33;;;;;;;14.38;5.65;;;;;;;6.64;69.78;101378.95;1736271;82;22628;-67
2022/10/11 04:50:59;;;;;;;11.22;5.92;;;;;;;6.69;69.79;101378.34;1726056;82;21536;-67
2022/10/11 04:53:26;;;;;;;10.25;6.10;;;;;;;6.72;69.76;101377.92;1715727;83;21607;-67
2022/10/11 04:56:04;;;;;;;9.10;5.55;;;;;;;6.73;69.81;101383.52;1718211;82;21045;-67
2022/10/11 04:58:33;;;;;;;10.00;5.60;;;;;;;6.75;69.90;101384.95;1729893;82;21115;-68
2022/10/11 05:00:59;;;;;;;10.30;6.00;;;;;;;6.78;70.02;101384.53;1734356;82;21260;-68
2022/10/11 05:03:26;;;;;;;9.33;5.87;;;;;;;6.81;70.13;101378.80;1714511;82;20960;-67
2022/10/11 05:05:53;;;;;;;10.08;5.87;;;;;;;6.88;70.28;101376.11;1697484;82;21054;-69
2022/10/11 05:08:23;;;;;;;12.20;7.08;;;;;;;6.94;70.40;101381.06;1719308;82;21147;-68
2022/10/11 05:11:02;;;;;;;10.25;6.80;;;;;;;6.99;70.50;101378.08;1735839;82;21092;-67
2022/10/11 05:13:30;;;;;;;11.33;7.45;;;;;;;7.03;70.59;101381.12;1729640;82;21191;-66
2022/10/11 05:15:57;;;;;;;12.23;7.53;;;;;;;7.04;70.76;101385.40;1728452;81;21108;-67
2022/10/11 05:18:24;;;;;;;13.18;7.78;;;;;;;7.10;70.90;101382.41;1725244;82;21008;-66
2022/10/11 05:21:16;;;;;;;10.60;7.15;;;;;;;7.17;71.00;101381.37;1699640;83;21024;-67
2022/10/11 05:23:45;;;;;;;10.85;7.15;;;;;;;7.25;71.07;101379.77;1660779;86;21483;-67
2022/10/11 05:26:13;;;;;;;10.18;6.87;;;;;;;7.34;71.15;101377.67;1682221;84;21672;-66
2022/10/11 05:28:41;;;;;;;12.50;7.10;;;;;;;7.43;71.14;101375.55;1674694;84;21100;-68
2022/10/11 05:31:08;;;;;;;11.85;6.95;;;;;;;7.49;71.17;101378.68;1684019;84;21159;-67
2022/10/11 05:33:35;;;;;;;10.43;6.40;;;;;;;7.57;71.19;101382.41;1694861;84;21066;-66
2022/10/11 05:36:01;;;;;;;8.95;5.65;;;;;;;7.66;71.22;101377.10;1684142;85;21593;-67
2022/10/11 05:38:28;;;;;;;10.58;6.58;;;;;;;7.78;71.20;101375.08;1670050;84;21261;-68
2022/10/11 05:41:01;;;;;;;9.55;5.92;;;;;;;7.85;71.19;101373.17;1685499;85;21029;-68
2022/10/11 05:43:27;;;;;;;11.20;6.25;;;;;;;7.94;71.20;101375.33;1679019;84;21055;-67
2022/10/11 05:45:56;;;;;;;8.05;4.50;;;;;;;8.07;71.19;101372.25;1690571;84;21083;-67
2022/10/11 05:48:25;;;;;;;7.42;4.78;;;;;;;8.20;71.17;101378.25;1685768;84;21565;-69
2022/10/11 05:50:52;;;;;;;9.05;4.95;;;;;;;8.29;71.08;101373.46;1672178;84;21226;-69
2022/10/11 05:53:19;;;;;;;10.93;5.42;;;;;;;8.39;71.03;101376.94;1685191;84;21032;-66
2022/10/11 05:55:46;;;;;;;9.15;5.33;;;;;;;8.47;70.93;101373.99;1690809;84;21522;-66
2022/10/11 05:58:17;;;;;;;8.43;5.03;;;;;;;8.55;70.83;101372.34;1683643;84;21538;-68
2022/10/11 06:00:43;;;;;;;8.70;4.97;;;;;;;8.66;70.77;101372.95;1691465;83;21536;-68
2022/10/11 06:03:11;;;;;;;8.35;5.28;;;;;;;8.77;70.62;101376.70;1676004;84;21256;-65
2022/10/11 06:05:37;;;;;;;7.70;4.62;;;;;;;8.86;70.43;101377.20;1668803;84;21116;-65
2022/10/11 06:08:06;;;;;;;8.98;4.90;;;;;;;8.93;70.28;101379.26;1681954;84;21070;-66
2022/10/11 06:10:33;;;;;;;6.92;5.05;;;;;;;9.02;70.17;101379.77;1680454;84;21070;-66
2022/10/11 06:13:12;;;;;;;10.13;4.90;;;;;;;9.14;70.07;101384.59;1690047;84;21027;-67
2022/10/11 06:15:52;;;;;;;8.00;4.80;;;;;;;9.22;69.89;101378.15;1685204;82;21557;-65
2022/10/11 06:18:19;;;;;;;11.05;5.70;;;;;;;9.31;69.66;101381.59;1678899;83;21024;-65
2022/10/11 06:20:46;;;;;;;9.50;5.20;;;;;;;9.40;69.60;101378.06;1680334;84;21036;-64
2022/10/11 06:23:12;;;;;;;10.48;5.08;;;;;;;9.50;69.45;101379.64;1679460;84;21572;-65
2022/10/11 06:25:39;;;;;;;7.15;5.00;;;;;;;9.61;69.32;101382.06;1681863;83;21121;-67
2022/10/11 06:28:05;;;;;;;9.43;5.20;;;;;;;9.72;69.12;101383.11;1684613;84;21175;-68
2022/10/11 06:30:32;;;;;;;8.18;5.08;;;;;;;9.82;69.02;101376.14;1680818;84;21088;-67
2022/10/11 06:32:59;;;;;;;9.85;4.80;;;;;;;9.93;68.79;101375.85;1689243;84;21586;-67
2022/10/11 06:35:26;;;;;;;9.78;5.10;;;;;;;10.03;68.46;101374.74;1687031;84;21039;-67
2022/10/11 06:37:52;;;;;;;9.33;5.37;;;;;;;10.12;68.29;101379.74;1683849;84;21083;-67
2022/10/11 06:40:19;;;;;;;9.65;5.20;;;;;;;10.20;68.03;101380.70;1681144;84;21315;-68
2022/10/11 06:42:48;;;;;;;9.30;4.97;;;;;;;10.32;67.93;101381.54;1708917;83;21127;-66
2022/10/11 06:45:15;;;;;;;8.10;4.85;;;;;;;10.41;67.76;101372.13;1694154;83;21563;-66
2022/10/11 06:47:42;;;;;;;10.20;5.35;;;;;;;10.52;67.57;101372.61;1674471;84;21226;-69
2022/10/11 06:50:09;;;;;;;10.13;4.83;;;;;;;10.65;67.39;101378.73;1673485;84;21098;-66
2022/10/11 06:52:36;;;;;;;8.05;4.75;;;;;;;10.77;67.19;101377.66;1663344;85;21152;-67
2022/10/11 06:55:04;;;;;;;11.38;5.75;;;;;;;10.89;66.85;101373.61;1683000;85;21511;-66
2022/10/11 06:57:31;;;;;;;11.75;6.20;;;;;;;11.03;66.63;101369.59;1670461;84;21087;-67
2022/10/11 06:59:58;;;;;;;22.87;6.15;;;;;;;11.21;66.59;101361.06;1679102;84;21016;-67
2022/10/11 07:02:24;;;;;;;8.60;4.72;;;;;;;11.38;66.42;101358.41;1685427;84;21070;-67
2022/10/11 07:04:51;;;;;;;7.72;4.42;;;;;;;11.57;66.02;101369.69;1689376;84;21163;-66
2022/10/11 07:07:19;;;;;;;9.33;4.60;;;;;;;11.68;65.42;101367.44;1684900;84;21085;-66
2022/10/11 07:09:46;;;;;;;7.50;4.67;;;;;;;11.76;64.88;101363.56;1678508;82;21046;-65
2022/10/11 07:12:16;;;;;;;9.00;4.83;;;;;;;11.84;64.42;101366.64;1670326;83;21477;-65
2022/10/11 07:14:42;;;;;;;16.87;6.55;;;;;;;11.91;63.97;101364.63;1680828;84;21041;-66
2022/10/11 07:17:10;;;;;;;9.63;5.10;;;;;;;12.04;63.66;101363.98;1668116;86;40112;-64
2022/10/11 07:19:37;;;;;;;9.85;5.10;;;;;;;12.17;63.26;101365.80;1670511;84;21440;-66
2022/10/11 07:22:03;;;;;;;9.08;5.33;;;;;;;12.24;62.82;101362.94;1677218;84;21574;-67
2022/10/11 07:24:30;;;;;;;8.13;4.50;;;;;;;12.35;62.45;101355.30;1696555;84;21024;-66
2022/10/11 07:26:57;;;;;;;7.42;4.60;;;;;;;12.46;62.19;101360.78;1676072;84;21029;-64
2022/10/11 07:29:24;;;;;;;9.18;5.00;;;;;;;12.54;61.84;101355.80;1668323;86;21176;-65
2022/10/11 07:31:51;;;;;;;6.92;4.30;;;;;;;12.64;61.69;101355.92;1674579;84;21096;-65
2022/10/11 07:34:19;;;;;;;7.05;4.62;;;;;;;12.75;61.24;101350.67;1668225;86;21053;-65
2022/10/11 07:36:46;;;;;;;7.60;4.37;;;;;;;12.85;60.70;101358.81;1668179;86;21080;-65
2022/10/11 07:39:12;;;;;;;8.60;4.57;;;;;;;12.93;60.40;101348.96;1685860;84;21253;-66
2022/10/11 07:41:39;;;;;;;7.27;4.10;;;;;;;13.04;60.06;101356.59;1687979;84;21911;-66
2022/10/11 07:44:06;;;;;;;5.77;2.70;;;;;;;13.15;59.32;101344.89;1668255;86;21716;-65
2022/10/11 07:46:32;;;;;;;18.23;4.83;;;;;;;13.25;58.09;101340.98;1683706;84;21306;-66
2022/10/11 07:48:59;;;;;;;15.33;4.40;;;;;;;13.33;57.06;101337.84;1688419;84;21277;-67
2022/10/11 07:51:25;;;;;;;4.87;2.87;;;;;;;13.44;56.74;101332.02;1674249;84;21201;-64
2022/10/11 07:53:55;;;;;;;5.40;3.07;;;;;;;13.54;55.52;101332.63;1672816;83;21294;-66
2022/10/11 07:56:25;;;;;;;8.37;3.00;;;;;;;13.61;54.93;101331.87;1666773;86;21213;-66
2022/10/11 07:58:57;;;;;;;10.27;3.40;;;;;;;13.70;54.05;101337.03;1684352;84;21623;-65
2022/10/11 08:01:26;;;;;;;7.37;2.97;;;;;;;13.76;53.82;101329.83;1695930;84;21287;-67
2022/10/11 08:03:52;;;;;;;6.13;2.43;;;;;;;13.84;53.77;101333.36;1696624;84;21216;-66
2022/10/11 08:06:21;;;;;;;5.57;2.70;;;;;;;13.92;53.54;101331.55;1696381;84;21295;-66
2022/10/11 08:08:48;;;;;;;10.00;3.00;;;;;;;14.00;52.88;101338.28;1689803;84;21140;-65
2022/10/11 08:11:24;;;;;;;5.67;2.17;;;;;;;14.08;52.77;101332.41;1659138;86;21815;-66
2022/10/11 08:13:52;;;;;;;4.60;2.10;;;;;;;14.21;52.42;101331.93;1674992;85;21605;-68
2022/10/11 08:16:19;;;;;;;3.70;1.80;;;;;;;14.33;51.82;101332.27;1679269;85;21341;-66
2022/10/11 08:18:47;;;;;;;3.47;1.70;;;;;;;14.35;50.42;101325.56;1688658;85;22239;-66
2022/10/11 08:21:16;;;;;;;2.50;1.20;;;;;;;14.39;50.03;101322.61;1688366;85;21284;-67
2022/10/11 08:23:43;;;;;;;4.17;1.00;;;;;;;14.46;48.99;101314.30;1684825;83;21405;-65
2022/10/11 08:26:10;;;;;;;2.23;1.00;;;;;;;14.51;46.77;101315.16;1673164;83;21328;-68
2022/10/11 08:28:37;;;;;;;2.27;1.10;;;;;;;14.56;46.85;101318.39;1663915;85;21831;-66
2022/10/11 08:31:04;;;;;;;2.50;0.90;;;;;;;14.63;45.81;101317.59;1696689;83;21279;-66
2022/10/11 08:33:31;;;;;;;1.53;0.73;;;;;;;14.67;45.38;101313.30;1696447;84;21196;-68
2022/10/11 08:35:58;;;;;;;4.00;1.00;;;;;;;14.72;44.55;101317.89;1696295;84;21275;-66
2022/10/11 08:38:26;;;;;;;3.53;1.30;;;;;;;14.75;43.66;101311.98;1696570;84;21319;-68
2022/10/11 08:40:55;;;;;;;3.97;1.20;;;;;;;14.78;44.26;101317.64;1696588;84;21747;-67
2022/10/11 08:43:49;;;;;;;3.73;0.90;;;;;;;14.88;44.06;101310.67;1703050;84;21305;-67
2022/10/11 08:46:15;;;;;;;3.67;1.40;;;;;;;14.95;42.68;101313.90;1696302;83;21741;-66
2022/10/11 08:48:47;;;;;;;2.77;0.90;;;;;;;15.00;42.64;101301.78;1688518;85;21292;-66
2022/10/11 08:51:25;;;;;;;53.70;6.17;;;;;;;15.02;42.45;101302.33;1688832;85;21328;-65
2022/10/11 08:54:30;;;;;;;3.70;1.53;;;;;;;15.07;42.53;101309.59;1687758;85;21079;-66
2022/10/11 08:56:57;;;;;;;2.43;1.30;;;;;;;15.14;42.36;101303.42;1580940;90;21249;-65
2022/10/11 08:59:38;;;;;;;3.83;1.30;;;;;;;15.18;42.50;101300.45;1667114;84;21358;-68
2022/10/11 09:02:35;;;;;;;4.75;1.60;;;;;;;15.23;42.65;101298.58;1696489;84;21810;-65
2022/10/11 09:05:02;;;;;;;3.80;1.80;;;;;;;15.35;41.48;101294.80;1696627;84;20982;-65
2022/10/11 09:07:59;;;;;;;4.40;1.63;;;;;;;15.42;41.33;101289.39;1696505;84;21276;-66
2022/10/11 09:10:49;;;;;;;4.20;1.37;;;;;;;15.49;41.59;101282.38;1696272;84;21423;-66
2022/10/11 09:13:48;;;;;;;3.37;1.50;;;;;;;15.64;41.80;101289.64;1696311;84;21357;-65
2022/10/11 09:16:33;;;;;;;24.13;4.47;;;;;;;15.71;39.87;101282.11;1696130;84;21485;-66
2022/10/11 09:19:33;;;;;;;4.13;1.57;;;;;;;15.78;40.16;101288.55;1687693;85;21615;-66
2022/10/11 09:22:17;;;;;;;4.93;1.50;;;;;;;15.86;40.02;101280.73;1687602;85;21586;-67
2022/10/11 09:25:12;;;;;;;7.37;2.60;;;;;;;15.96;39.78;101282.58;1687208;85;21787;-66
2022/10/11 09:28:00;;;;;;;6.23;2.20;;;;;;;16.05;38.26;101284.95;1675413;85;21608;-64
2022/10/11 09:30:27;;;;;;;7.90;1.90;;;;;;;16.05;38.26;101284.95;1660543;86;21519;-67
2022/10/11 09:33:05;;;;;;;7.30;2.43;;;;;;;16.08;37.80;101274.16;1660743;86;21573;-67
2022/10/11 09:35:40;;;;;;;12.97;2.90;;;;;;;16.20;38.10;101281.94;1660772;86;21743;-66
2022/10/11 09:38:33;;;;;;;7.77;2.20;;;;;;;16.20;38.10;101281.94;1648066;85;21756;-66
2022/10/11 09:41:36;;;;;;;7.87;2.23;;;;;;;16.36;37.33;101269.45;1688651;85;21521;-65
2022/10/11 09:44:05;;;;;;;6.53;1.60;;;;;;;16.36;37.33;101269.45;1688376;85;21422;-67
2022/10/11 09:46:36;;;;;;;6.83;1.80;;;;;;;16.41;37.31;101269.41;1688443;85;21815;-67
2022/10/11 09:49:05;;;;;;;4.00;1.70;;;;;;;16.41;37.31;101269.41;1696665;83;21706;-67
2022/10/11 09:51:32;;;;;;;5.73;2.00;;;;;;;16.37;36.31;101266.21;1696527;84;21769;-66
2022/10/11 09:54:01;;;;;;;7.33;1.90;;;;;;;16.29;37.04;101264.11;1688443;85;21715;-65
2022/10/11 09:56:30;;;;;;;7.47;2.57;;;;;;;16.33;37.14;101265.16;1678376;85;21773;-66
2022/10/11 09:59:19;;;;;;;4.07;1.50;;;;;;;16.51;35.47;101261.00;1682040;84;21721;-66
2022/10/11 10:01:46;;;;;;;9.67;2.40;;;;;;;16.51;35.47;101261.00;1682093;85;21735;-66
2022/10/11 10:04:15;;;;;;;5.53;1.50;;;;;;;16.58;36.03;101261.48;1681758;85;21605;-65
2022/10/11 10:06:43;;;;;;;3.63;1.33;;;;;;;16.65;36.04;101266.85;1682148;85;21775;-66
2022/10/11 10:09:29;;;;;;;2.90;1.53;;;;;;;16.71;35.31;101260.05;1682022;85;21676;-66
2022/10/11 10:11:57;;;;;;;4.90;1.73;;;;;;;16.73;35.15;101253.85;1681972;85;21831;-66
2022/10/11 10:14:27;;;;;;;2.73;1.30;;;;;;;16.74;34.25;101251.41;1681504;85;21771;-67
2022/10/11 10:17:15;;;;;;;2.57;1.00;;;;;;;16.77;33.60;101247.63;1693974;84;22304;-65
2022/10/11 10:19:52;;;;;;;2.93;1.40;;;;;;;16.82;33.16;101249.50;1693926;84;22303;-66
2022/10/11 10:22:21;;;;;;;7.03;1.60;;;;;;;16.92;33.13;101245.38;1694012;84;22249;-65
2022/10/11 10:24:49;;;;;;;3.80;1.03;;;;;;;16.99;33.23;101239.65;1694169;84;21676;-66
2022/10/11 10:27:25;;;;;;;8.93;1.70;;;;;;;17.04;31.86;101237.69;1693946;84;21813;-64
2022/10/11 10:30:09;;;;;;;2.90;1.47;;;;;;;17.05;31.91;101229.87;1691890;84;22869;-66
2022/10/11 10:32:54;;;;;;;20.53;3.23;;;;;;;17.09;32.22;101235.51;1684851;84;21789;-64
2022/10/11 10:35:35;;;;;;;6.83;1.53;;;;;;;17.12;32.72;101232.24;1693316;84;22260;-66
2022/10/11 10:38:34;;;;;;;2.53;1.27;;;;;;;17.14;32.97;101230.59;1709950;83;22271;-68
2022/10/11 10:41:03;;;;;;;4.17;1.40;;;;;;;17.17;32.58;101232.73;1682170;83;21822;-65
2022/10/11 10:43:36;;;;;;;2.90;1.40;;;;;;;17.12;32.94;101225.49;1659793;84;21076;-65
2022/10/11 10:46:43;;;;;;;4.53;1.80;;;;;;;17.12;32.94;101225.49;1670499;84;21052;-66
2022/10/11 10:49:32;;;;;;;3.73;1.40;;;;;;;17.11;33.50;101230.09;1670499;84;21802;-66
2022/10/11 10:52:39;;;;;;;3.40;1.23;;;;;;;17.14;33.07;101221.95;1692928;84;21785;-65
2022/10/11 10:55:40;;;;;;;6.97;1.60;;;;;;;17.20;32.31;101220.01;1669921;84;21782;-65
2022/10/11 10:58:41;;;;;;;4.40;1.63;;;;;;;17.29;31.80;101216.41;1667560;84;22135;-64
2022/10/11 11:01:17;;;;;;;3.65;1.25;;;;;;;17.40;31.67;101205.50;1671655;84;21781;-66
2022/10/11 11:03:58;;;;;;;8.37;2.00;;;;;;;17.45;32.52;101205.45;1668211;84;21031;-67
2022/10/11 11:06:39;;;;;;;2.90;1.50;;;;;;;17.52;32.58;101201.86;1666149;86;21144;-67
2022/10/11 11:09:27;;;;;;;3.30;1.75;;;;;;;17.57;32.58;101201.78;1690157;84;21051;-66
2022/10/11 11:12:11;;;;;;;3.80;2.00;;;;;;;17.61;32.78;101193.94;1693996;84;21167;-66
2022/10/11 11:15:01;;;;;;;2.93;1.37;;;;;;;17.62;32.83;101193.63;1672692;84;21529;-65
2022/10/11 11:18:13;;;;;;;4.03;1.80;;;;;;;17.66;32.82;101189.25;1682799;84;21083;-66
2022/10/11 11:20:56;;;;;;;3.93;2.00;;;;;;;17.68;33.65;101195.19;1669904;84;20986;-65
2022/10/11 11:23:49;;;;;;;3.15;1.70;;;;;;;17.70;33.00;101190.83;1666196;86;21101;-66
2022/10/11 11:26:51;;;;;;;4.43;1.90;;;;;;;17.70;33.06;101194.88;1680379;84;21211;-66
2022/10/11 11:29:35;;;;;;;3.90;1.73;;;;;;;17.65;33.04;101194.95;1693694;84;21104;-68
2022/10/11 11:32:20;;;;;;;4.47;1.83;;;;;;;17.63;32.50;101187.67;1693911;84;21097;-65
2022/10/11 11:35:00;;;;;;;3.03;1.60;;;;;;;17.66;32.63;101177.65;1694049;84;21008;-66
2022/10/11 11:37:40;;;;;;;4.37;1.77;;;;;;;17.78;32.93;101180.22;1677214;84;21016;-66
2022/10/11 11:40:30;;;;;;;7.53;2.00;;;;;;;17.81;32.81;101172.89;1694095;84;21114;-65
2022/10/11 11:43:02;;;;;;;5.40;2.00;;;;;;;17.81;32.81;101172.89;1694188;84;21530;-66
2022/10/11 11:45:54;;;;;;;4.43;2.30;;;;;;;17.92;32.78;101169.50;1694186;84;21522;-67
2022/10/11 11:48:26;;;;;;;;;;;;;;;17.99;32.24;101169.94;1696888;84;21074;-66
2022/10/11 11:51:07;;;;;;;5.77;2.10;;;;;;;18.00;32.04;101163.45;1693269;84;20446;-67
2022/10/11 11:54:05;;;;;;;3.63;2.03;;;;;;;18.04;32.47;101160.41;1693697;84;21742;-66
2022/10/11 11:57:06;;;;;;;3.53;1.97;;;;;;;17.89;31.98;101163.32;1693924;84;21514;-67
2022/10/11 11:59:56;;;;;;;5.60;2.27;;;;;;;17.37;32.83;101165.56;1694145;84;21047;-66